sensor_id;sensor_type;location;lat;lon;timestamp;temperature;humidity
23079;DHT22;11707;50.830;4.364;2022-09-09T00:00:44;15.60;99.90
23079;DHT22;11707;50.830;4.364;2022-09-09T00:03:18;15.50;99.90
23079;DHT22;11707;50.830;4.364;2022-09-09T00:11:28;15.20;99.90
23079;DHT22;11707;50.830;4.364;2022-09-09T00:13:58;15.30;99.90
23079;DHT22;11707;50.830;4.364;2022-09-09T00:16:28;15.30;99.90
23079;DHT22;11707;50.830;4.364;2022-09-09T00:19:19;15.40;99.90
23079;DHT22;11707;50.830;4.364;2022-09-09T00:22:16;15.20;99.90
23079;DHT22;11707;50.830;4.364;2022-09-09T00:27:31;15.20;99.90
23079;DHT22;11707;50.830;4.364;2022-09-09T00:32:39;15.30;99.90
23079;DHT22;11707;50.830;4.364;2022-09-09T00:35:18;15.30;99.90
23079;DHT22;11707;50.830;4.364;2022-09-09T00:37:48;15.30;99.90
23079;DHT22;11707;50.830;4.364;2022-09-09T00:40:34;15.30;99.90
23079;DHT22;11707;50.830;4.364;2022-09-09T00:43:30;15.30;99.90
23079;DHT22;11707;50.830;4.364;2022-09-09T00:58:08;15.40;99.90
23079;DHT22;11707;50.830;4.364;2022-09-09T01:01:02;15.50;99.90
23079;DHT22;11707;50.830;4.364;2022-09-09T01:03:35;15.50;99.90
23079;DHT22;11707;50.830;4.364;2022-09-09T01:09:00;15.50;99.90
23079;DHT22;11707;50.830;4.364;2022-09-09T01:11:32;15.60;99.90
23079;DHT22;11707;50.830;4.364;2022-09-09T01:14:24;15.60;99.90
23079;DHT22;11707;50.830;4.364;2022-09-09T01:16:59;15.60;99.90
23079;DHT22;11707;50.830;4.364;2022-09-09T01:27:49;15.70;99.90
23079;DHT22;11707;50.830;4.364;2022-09-09T01:30:17;15.60;99.90
23079;DHT22;11707;50.830;4.364;2022-09-09T01:32:46;15.70;99.90
23079;DHT22;11707;50.830;4.364;2022-09-09T01:37:49;15.60;99.90
23079;DHT22;11707;50.830;4.364;2022-09-09T01:40:14;15.60;99.90
23079;DHT22;11707;50.830;4.364;2022-09-09T01:42:40;15.60;99.90
23079;DHT22;11707;50.830;4.364;2022-09-09T01:45:07;15.70;99.90
23079;DHT22;11707;50.830;4.364;2022-09-09T01:47:33;15.60;99.90
23079;DHT22;11707;50.830;4.364;2022-09-09T01:49:59;15.60;99.90
23079;DHT22;11707;50.830;4.364;2022-09-09T01:52:26;15.50;99.90
23079;DHT22;11707;50.830;4.364;2022-09-09T01:54:52;15.60;99.90
23079;DHT22;11707;50.830;4.364;2022-09-09T01:57:27;15.50;99.90
23079;DHT22;11707;50.830;4.364;2022-09-09T02:00:13;15.50;99.90
23079;DHT22;11707;50.830;4.364;2022-09-09T02:03:05;15.50;99.90
23079;DHT22;11707;50.830;4.364;2022-09-09T02:06:01;15.40;99.90
23079;DHT22;11707;50.830;4.364;2022-09-09T02:13:40;15.60;99.90
23079;DHT22;11707;50.830;4.364;2022-09-09T02:19:17;15.50;99.90
23079;DHT22;11707;50.830;4.364;2022-09-09T02:21:49;15.50;99.90
23079;DHT22;11707;50.830;4.364;2022-09-09T02:24:16;15.60;99.90
23079;DHT22;11707;50.830;4.364;2022-09-09T02:26:43;15.60;99.90
23079;DHT22;11707;50.830;4.364;2022-09-09T02:29:19;15.60;99.90
23079;DHT22;11707;50.830;4.364;2022-09-09T02:31:50;15.70;99.90
23079;DHT22;11707;50.830;4.364;2022-09-09T02:34:18;15.60;99.90
23079;DHT22;11707;50.830;4.364;2022-09-09T02:36:46;15.70;99.90
23079;DHT22;11707;50.830;4.364;2022-09-09T02:39:12;15.70;99.90
23079;DHT22;11707;50.830;4.364;2022-09-09T02:41:40;15.80;99.90
23079;DHT22;11707;50.830;4.364;2022-09-09T02:44:14;15.80;99.90
23079;DHT22;11707;50.830;4.364;2022-09-09T02:55:04;16.00;99.90
23079;DHT22;11707;50.830;4.364;2022-09-09T02:57:33;15.90;99.90
23079;DHT22;11707;50.830;4.364;2022-09-09T02:59:59;15.90;99.90
23079;DHT22;11707;50.830;4.364;2022-09-09T03:02:26;15.80;99.90
23079;DHT22;11707;50.830;4.364;2022-09-09T03:04:51;15.60;99.90
23079;DHT22;11707;50.830;4.364;2022-09-09T03:07:19;15.60;99.90
23079;DHT22;11707;50.830;4.364;2022-09-09T03:09:44;15.60;99.90
23079;DHT22;11707;50.830;4.364;2022-09-09T03:12:11;15.70;99.90
23079;DHT22;11707;50.830;4.364;2022-09-09T03:14:37;15.70;99.90
23079;DHT22;11707;50.830;4.364;2022-09-09T03:17:04;15.70;99.90
23079;DHT22;11707;50.830;4.364;2022-09-09T03:19:30;15.60;99.90
23079;DHT22;11707;50.830;4.364;2022-09-09T03:21:57;15.70;99.90
23079;DHT22;11707;50.830;4.364;2022-09-09T03:24:24;15.70;99.90
23079;DHT22;11707;50.830;4.364;2022-09-09T03:26:50;15.60;99.90
23079;DHT22;11707;50.830;4.364;2022-09-09T03:29:16;15.60;99.90
23079;DHT22;11707;50.830;4.364;2022-09-09T03:31:43;15.50;99.90
23079;DHT22;11707;50.830;4.364;2022-09-09T03:34:09;15.60;99.90
23079;DHT22;11707;50.830;4.364;2022-09-09T03:36:34;15.60;99.90
23079;DHT22;11707;50.830;4.364;2022-09-09T03:39:00;15.60;99.90
23079;DHT22;11707;50.830;4.364;2022-09-09T03:41:28;15.50;99.90
23079;DHT22;11707;50.830;4.364;2022-09-09T03:43:54;15.50;99.90
23079;DHT22;11707;50.830;4.364;2022-09-09T03:46:21;15.50;99.90
23079;DHT22;11707;50.830;4.364;2022-09-09T03:48:47;15.50;99.90
23079;DHT22;11707;50.830;4.364;2022-09-09T03:51:13;15.50;99.90
23079;DHT22;11707;50.830;4.364;2022-09-09T03:53:39;15.40;99.90
23079;DHT22;11707;50.830;4.364;2022-09-09T03:56:05;15.40;99.90
23079;DHT22;11707;50.830;4.364;2022-09-09T03:58:36;15.40;99.90
23079;DHT22;11707;50.830;4.364;2022-09-09T04:01:08;15.40;99.90
23079;DHT22;11707;50.830;4.364;2022-09-09T04:03:39;15.50;99.90
23079;DHT22;11707;50.830;4.364;2022-09-09T04:06:06;15.40;99.90
23079;DHT22;11707;50.830;4.364;2022-09-09T04:08:34;15.40;99.90
23079;DHT22;11707;50.830;4.364;2022-09-09T04:11:01;15.40;99.90
23079;DHT22;11707;50.830;4.364;2022-09-09T04:13:32;15.40;99.90
23079;DHT22;11707;50.830;4.364;2022-09-09T04:16:00;15.50;99.90
23079;DHT22;11707;50.830;4.364;2022-09-09T04:18:26;15.50;99.90
23079;DHT22;11707;50.830;4.364;2022-09-09T04:20:54;15.40;99.90
23079;DHT22;11707;50.830;4.364;2022-09-09T04:23:21;15.40;99.90
23079;DHT22;11707;50.830;4.364;2022-09-09T04:25:48;15.40;99.90
23079;DHT22;11707;50.830;4.364;2022-09-09T04:28:18;15.30;99.90
23079;DHT22;11707;50.830;4.364;2022-09-09T04:30:45;15.40;99.90
23079;DHT22;11707;50.830;4.364;2022-09-09T04:33:12;15.50;99.90
23079;DHT22;11707;50.830;4.364;2022-09-09T04:35:38;15.40;99.90
23079;DHT22;11707;50.830;4.364;2022-09-09T04:38:05;15.40;99.90
23079;DHT22;11707;50.830;4.364;2022-09-09T04:40:33;15.40;99.90
23079;DHT22;11707;50.830;4.364;2022-09-09T04:42:59;15.50;99.90
23079;DHT22;11707;50.830;4.364;2022-09-09T04:45:25;15.40;99.90
23079;DHT22;11707;50.830;4.364;2022-09-09T04:47:51;15.40;99.90
23079;DHT22;11707;50.830;4.364;2022-09-09T04:50:17;15.40;99.90
23079;DHT22;11707;50.830;4.364;2022-09-09T04:52:44;15.40;99.90
23079;DHT22;11707;50.830;4.364;2022-09-09T04:55:10;15.40;99.90
23079;DHT22;11707;50.830;4.364;2022-09-09T04:57:35;15.30;99.90
23079;DHT22;11707;50.830;4.364;2022-09-09T05:00:02;15.30;99.90
23079;DHT22;11707;50.830;4.364;2022-09-09T05:02:28;15.40;99.90
23079;DHT22;11707;50.830;4.364;2022-09-09T05:04:55;15.40;99.90
23079;DHT22;11707;50.830;4.364;2022-09-09T05:07:21;15.40;99.90
23079;DHT22;11707;50.830;4.364;2022-09-09T05:09:47;15.40;99.90
23079;DHT22;11707;50.830;4.364;2022-09-09T05:12:15;15.40;99.90
23079;DHT22;11707;50.830;4.364;2022-09-09T05:14:42;15.40;99.90
23079;DHT22;11707;50.830;4.364;2022-09-09T05:17:08;15.40;99.90
23079;DHT22;11707;50.830;4.364;2022-09-09T05:19:34;15.40;99.90
23079;DHT22;11707;50.830;4.364;2022-09-09T05:21:59;15.50;99.90
23079;DHT22;11707;50.830;4.364;2022-09-09T05:24:26;15.50;99.90
23079;DHT22;11707;50.830;4.364;2022-09-09T05:26:52;15.60;99.90
23079;DHT22;11707;50.830;4.364;2022-09-09T05:29:18;15.70;99.90
23079;DHT22;11707;50.830;4.364;2022-09-09T05:31:46;15.70;99.90
23079;DHT22;11707;50.830;4.364;2022-09-09T05:34:12;15.70;99.90
23079;DHT22;11707;50.830;4.364;2022-09-09T05:36:38;15.70;99.90
23079;DHT22;11707;50.830;4.364;2022-09-09T05:39:04;15.70;99.90
23079;DHT22;11707;50.830;4.364;2022-09-09T05:41:29;15.80;99.90
23079;DHT22;11707;50.830;4.364;2022-09-09T05:43:56;15.80;99.90
23079;DHT22;11707;50.830;4.364;2022-09-09T05:46:24;15.80;99.90
23079;DHT22;11707;50.830;4.364;2022-09-09T05:48:53;15.70;99.90
23079;DHT22;11707;50.830;4.364;2022-09-09T05:51:24;15.60;99.90
23079;DHT22;11707;50.830;4.364;2022-09-09T05:53:52;15.70;99.90
23079;DHT22;11707;50.830;4.364;2022-09-09T05:56:23;15.70;99.90
23079;DHT22;11707;50.830;4.364;2022-09-09T05:58:53;15.70;99.90
23079;DHT22;11707;50.830;4.364;2022-09-09T06:01:32;15.60;99.90
23079;DHT22;11707;50.830;4.364;2022-09-09T06:03:59;15.70;99.90
23079;DHT22;11707;50.830;4.364;2022-09-09T06:06:27;15.70;99.90
23079;DHT22;11707;50.830;4.364;2022-09-09T06:08:56;15.70;99.90
23079;DHT22;11707;50.830;4.364;2022-09-09T06:11:27;15.70;99.90
23079;DHT22;11707;50.830;4.364;2022-09-09T06:13:56;15.70;99.90
23079;DHT22;11707;50.830;4.364;2022-09-09T06:16:24;15.80;99.90
23079;DHT22;11707;50.830;4.364;2022-09-09T06:18:50;15.80;99.90
23079;DHT22;11707;50.830;4.364;2022-09-09T06:21:18;16.00;99.90
23079;DHT22;11707;50.830;4.364;2022-09-09T06:23:45;16.10;99.90
23079;DHT22;11707;50.830;4.364;2022-09-09T06:28:44;16.20;99.90
23079;DHT22;11707;50.830;4.364;2022-09-09T06:31:12;16.20;99.90
23079;DHT22;11707;50.830;4.364;2022-09-09T06:33:41;16.10;99.90
23079;DHT22;11707;50.830;4.364;2022-09-09T06:36:29;16.20;99.90
23079;DHT22;11707;50.830;4.364;2022-09-09T06:38:54;16.10;99.90
23079;DHT22;11707;50.830;4.364;2022-09-09T06:41:22;16.20;99.90
23079;DHT22;11707;50.830;4.364;2022-09-09T06:43:48;16.20;99.90
23079;DHT22;11707;50.830;4.364;2022-09-09T06:46:16;16.20;99.90
23079;DHT22;11707;50.830;4.364;2022-09-09T06:48:43;16.30;99.90
23079;DHT22;11707;50.830;4.364;2022-09-09T06:51:20;16.20;99.90
23079;DHT22;11707;50.830;4.364;2022-09-09T06:53:54;16.30;99.90
23079;DHT22;11707;50.830;4.364;2022-09-09T06:56:23;16.30;99.90
23079;DHT22;11707;50.830;4.364;2022-09-09T06:58:51;16.30;99.90
23079;DHT22;11707;50.830;4.364;2022-09-09T07:01:19;16.40;99.90
23079;DHT22;11707;50.830;4.364;2022-09-09T07:03:47;16.40;99.90
23079;DHT22;11707;50.830;4.364;2022-09-09T07:06:19;16.50;99.90
23079;DHT22;11707;50.830;4.364;2022-09-09T07:08:55;16.50;99.90
23079;DHT22;11707;50.830;4.364;2022-09-09T07:11:23;16.50;99.90
23079;DHT22;11707;50.830;4.364;2022-09-09T07:13:50;16.50;99.90
23079;DHT22;11707;50.830;4.364;2022-09-09T07:16:17;16.60;99.90
23079;DHT22;11707;50.830;4.364;2022-09-09T07:18:43;16.40;99.90
23079;DHT22;11707;50.830;4.364;2022-09-09T07:21:11;16.50;99.90
23079;DHT22;11707;50.830;4.364;2022-09-09T07:23:41;16.60;99.90
23079;DHT22;11707;50.830;4.364;2022-09-09T07:26:11;16.80;99.90
23079;DHT22;11707;50.830;4.364;2022-09-09T07:28:38;16.70;99.90
23079;DHT22;11707;50.830;4.364;2022-09-09T07:31:05;16.70;99.90
23079;DHT22;11707;50.830;4.364;2022-09-09T07:33:32;16.60;99.90
23079;DHT22;11707;50.830;4.364;2022-09-09T07:36:14;16.60;99.90
23079;DHT22;11707;50.830;4.364;2022-09-09T07:38:41;16.60;99.90
23079;DHT22;11707;50.830;4.364;2022-09-09T07:41:12;16.50;99.90
23079;DHT22;11707;50.830;4.364;2022-09-09T07:43:46;16.40;99.90
23079;DHT22;11707;50.830;4.364;2022-09-09T07:46:15;16.20;99.90
23079;DHT22;11707;50.830;4.364;2022-09-09T07:48:49;16.20;99.90
23079;DHT22;11707;50.830;4.364;2022-09-09T07:51:17;16.20;99.90
23079;DHT22;11707;50.830;4.364;2022-09-09T07:53:45;16.00;99.90
23079;DHT22;11707;50.830;4.364;2022-09-09T07:56:14;16.00;99.90
23079;DHT22;11707;50.830;4.364;2022-09-09T07:58:41;16.10;99.90
23079;DHT22;11707;50.830;4.364;2022-09-09T08:01:14;16.00;99.90
23079;DHT22;11707;50.830;4.364;2022-09-09T08:03:40;16.20;99.90
23079;DHT22;11707;50.830;4.364;2022-09-09T08:06:07;16.20;99.90
23079;DHT22;11707;50.830;4.364;2022-09-09T08:08:35;16.40;99.90
23079;DHT22;11707;50.830;4.364;2022-09-09T08:11:04;16.50;99.90
23079;DHT22;11707;50.830;4.364;2022-09-09T08:13:30;16.70;99.90
23079;DHT22;11707;50.830;4.364;2022-09-09T08:16:07;16.80;99.90
23079;DHT22;11707;50.830;4.364;2022-09-09T08:18:34;16.90;99.90
23079;DHT22;11707;50.830;4.364;2022-09-09T08:21:27;17.00;99.90
23079;DHT22;11707;50.830;4.364;2022-09-09T08:23:54;17.00;99.90
23079;DHT22;11707;50.830;4.364;2022-09-09T08:26:32;17.00;99.90
23079;DHT22;11707;50.830;4.364;2022-09-09T08:29:00;16.90;99.90
23079;DHT22;11707;50.830;4.364;2022-09-09T08:31:30;16.90;99.90
23079;DHT22;11707;50.830;4.364;2022-09-09T08:33:57;17.00;99.90
23079;DHT22;11707;50.830;4.364;2022-09-09T08:36:27;17.10;99.90
23079;DHT22;11707;50.830;4.364;2022-09-09T08:38:55;17.00;99.90
23079;DHT22;11707;50.830;4.364;2022-09-09T08:52:30;16.70;99.90
23079;DHT22;11707;50.830;4.364;2022-09-09T08:57:44;16.70;99.90
23079;DHT22;11707;50.830;4.364;2022-09-09T09:00:11;16.70;99.90
23079;DHT22;11707;50.830;4.364;2022-09-09T09:03:06;16.60;99.90
23079;DHT22;11707;50.830;4.364;2022-09-09T09:05:54;16.50;99.90
23079;DHT22;11707;50.830;4.364;2022-09-09T09:08:40;16.50;99.90
23079;DHT22;11707;50.830;4.364;2022-09-09T09:11:07;16.50;99.90
23079;DHT22;11707;50.830;4.364;2022-09-09T09:14:02;16.40;99.90
23079;DHT22;11707;50.830;4.364;2022-09-09T09:16:57;16.40;99.90
23079;DHT22;11707;50.830;4.364;2022-09-09T09:19:24;16.40;99.90
23079;DHT22;11707;50.830;4.364;2022-09-09T09:24:31;16.40;99.90
23079;DHT22;11707;50.830;4.364;2022-09-09T09:27:12;16.30;99.90
23079;DHT22;11707;50.830;4.364;2022-09-09T09:29:38;16.30;99.90
23079;DHT22;11707;50.830;4.364;2022-09-09T09:32:07;16.40;99.90
23079;DHT22;11707;50.830;4.364;2022-09-09T09:34:36;16.30;99.90
23079;DHT22;11707;50.830;4.364;2022-09-09T09:37:02;16.30;99.90
23079;DHT22;11707;50.830;4.364;2022-09-09T09:39:37;16.20;99.90
23079;DHT22;11707;50.830;4.364;2022-09-09T09:42:23;16.20;99.90
23079;DHT22;11707;50.830;4.364;2022-09-09T09:44:50;16.20;99.90
23079;DHT22;11707;50.830;4.364;2022-09-09T09:47:20;16.20;99.90
23079;DHT22;11707;50.830;4.364;2022-09-09T09:49:53;16.30;99.90
23079;DHT22;11707;50.830;4.364;2022-09-09T09:52:26;16.30;99.90
23079;DHT22;11707;50.830;4.364;2022-09-09T09:54:53;16.30;99.90
23079;DHT22;11707;50.830;4.364;2022-09-09T09:57:24;16.30;99.90
23079;DHT22;11707;50.830;4.364;2022-09-09T10:00:02;16.40;99.90
23079;DHT22;11707;50.830;4.364;2022-09-09T10:02:49;16.50;99.90
23079;DHT22;11707;50.830;4.364;2022-09-09T10:07:46;16.60;99.90
23079;DHT22;11707;50.830;4.364;2022-09-09T10:10:27;16.70;99.90
23079;DHT22;11707;50.830;4.364;2022-09-09T10:13:02;16.80;99.90
23079;DHT22;11707;50.830;4.364;2022-09-09T10:15:51;16.90;99.90
23079;DHT22;11707;50.830;4.364;2022-09-09T10:30:03;16.90;99.90
23079;DHT22;11707;50.830;4.364;2022-09-09T10:35:31;17.20;99.90
23079;DHT22;11707;50.830;4.364;2022-09-09T10:57:11;17.80;99.90
23079;DHT22;11707;50.830;4.364;2022-09-09T10:59:47;17.90;99.90
23079;DHT22;11707;50.830;4.364;2022-09-09T11:02:26;17.90;99.90
23079;DHT22;11707;50.830;4.364;2022-09-09T11:04:57;18.00;99.90
23079;DHT22;11707;50.830;4.364;2022-09-09T11:07:59;17.90;99.90
23079;DHT22;11707;50.830;4.364;2022-09-09T11:13:39;18.10;99.90
23079;DHT22;11707;50.830;4.364;2022-09-09T11:17:25;18.30;99.90
23079;DHT22;11707;50.830;4.364;2022-09-09T11:19:33;18.40;99.90
23079;DHT22;11707;50.830;4.364;2022-09-09T11:22:44;18.40;99.90
23079;DHT22;11707;50.830;4.364;2022-09-09T11:24:52;18.50;99.90
23079;DHT22;11707;50.830;4.364;2022-09-09T11:27:37;18.50;99.90
23079;DHT22;11707;50.830;4.364;2022-09-09T11:30:29;18.50;99.90
23079;DHT22;11707;50.830;4.364;2022-09-09T11:35:54;18.40;99.90
23079;DHT22;11707;50.830;4.364;2022-09-09T11:41:06;18.40;99.90
23079;DHT22;11707;50.830;4.364;2022-09-09T11:43:43;18.40;99.90
23079;DHT22;11707;50.830;4.364;2022-09-09T11:46:12;18.30;99.90
23079;DHT22;11707;50.830;4.364;2022-09-09T11:48:44;18.40;99.90
23079;DHT22;11707;50.830;4.364;2022-09-09T11:53:56;18.20;99.90
23079;DHT22;11707;50.830;4.364;2022-09-09T11:59:00;18.60;99.90
23079;DHT22;11707;50.830;4.364;2022-09-09T12:01:44;18.50;99.90
23079;DHT22;11707;50.830;4.364;2022-09-09T12:04:14;18.40;99.90
23079;DHT22;11707;50.830;4.364;2022-09-09T12:06:45;18.40;99.90
23079;DHT22;11707;50.830;4.364;2022-09-09T12:11:52;18.70;99.90
23079;DHT22;11707;50.830;4.364;2022-09-09T12:19:41;18.60;99.90
23079;DHT22;11707;50.830;4.364;2022-09-09T12:22:16;18.40;99.90
23079;DHT22;11707;50.830;4.364;2022-09-09T12:24:49;18.30;99.90
23079;DHT22;11707;50.830;4.364;2022-09-09T12:27:28;18.10;99.90
23079;DHT22;11707;50.830;4.364;2022-09-09T12:30:03;18.20;99.90
23079;DHT22;11707;50.830;4.364;2022-09-09T12:32:29;18.40;99.90
23079;DHT22;11707;50.830;4.364;2022-09-09T12:35:26;18.70;99.90
23079;DHT22;11707;50.830;4.364;2022-09-09T12:38:01;18.80;99.90
23079;DHT22;11707;50.830;4.364;2022-09-09T12:40:32;19.00;99.90
23079;DHT22;11707;50.830;4.364;2022-09-09T12:43:01;18.70;99.90
23079;DHT22;11707;50.830;4.364;2022-09-09T12:45:30;18.50;99.90
23079;DHT22;11707;50.830;4.364;2022-09-09T12:48:17;18.70;99.90
23079;DHT22;11707;50.830;4.364;2022-09-09T12:53:32;19.20;99.90
23079;DHT22;11707;50.830;4.364;2022-09-09T12:56:00;19.40;99.90
23079;DHT22;11707;50.830;4.364;2022-09-09T12:58:29;19.40;99.90
23079;DHT22;11707;50.830;4.364;2022-09-09T13:00:59;19.50;99.90
23079;DHT22;11707;50.830;4.364;2022-09-09T13:03:26;19.70;99.90
23079;DHT22;11707;50.830;4.364;2022-09-09T13:05:53;19.50;99.90
23079;DHT22;11707;50.830;4.364;2022-09-09T13:08:19;19.30;99.90
23079;DHT22;11707;50.830;4.364;2022-09-09T13:10:59;19.30;99.90
23079;DHT22;11707;50.830;4.364;2022-09-09T13:13:37;19.00;99.90
23079;DHT22;11707;50.830;4.364;2022-09-09T13:16:05;18.90;99.90
23079;DHT22;11707;50.830;4.364;2022-09-09T13:18:34;18.90;99.90
23079;DHT22;11707;50.830;4.364;2022-09-09T13:21:01;19.00;99.90
23079;DHT22;11707;50.830;4.364;2022-09-09T13:23:32;19.30;99.90
23079;DHT22;11707;50.830;4.364;2022-09-09T13:25:59;19.30;99.90
23079;DHT22;11707;50.830;4.364;2022-09-09T13:28:28;19.80;99.90
23079;DHT22;11707;50.830;4.364;2022-09-09T13:31:02;20.10;99.90
23079;DHT22;11707;50.830;4.364;2022-09-09T13:33:32;20.20;99.90
23079;DHT22;11707;50.830;4.364;2022-09-09T13:36:07;20.20;99.90
23079;DHT22;11707;50.830;4.364;2022-09-09T13:38:40;20.30;99.90
23079;DHT22;11707;50.830;4.364;2022-09-09T13:41:43;20.00;99.90
23079;DHT22;11707;50.830;4.364;2022-09-09T13:44:36;19.60;99.90
23079;DHT22;11707;50.830;4.364;2022-09-09T13:47:18;19.70;99.90
23079;DHT22;11707;50.830;4.364;2022-09-09T13:49:48;19.90;99.90
23079;DHT22;11707;50.830;4.364;2022-09-09T13:52:16;19.80;99.90
23079;DHT22;11707;50.830;4.364;2022-09-09T13:54:50;19.80;99.90
23079;DHT22;11707;50.830;4.364;2022-09-09T13:57:22;20.10;99.90
23079;DHT22;11707;50.830;4.364;2022-09-09T13:59:48;20.10;99.90
23079;DHT22;11707;50.830;4.364;2022-09-09T14:02:15;19.70;99.90
23079;DHT22;11707;50.830;4.364;2022-09-09T14:04:42;19.70;99.90
23079;DHT22;11707;50.830;4.364;2022-09-09T14:07:15;20.30;99.90
23079;DHT22;11707;50.830;4.364;2022-09-09T14:09:41;20.90;99.90
23079;DHT22;11707;50.830;4.364;2022-09-09T14:12:14;21.10;99.90
23079;DHT22;11707;50.830;4.364;2022-09-09T14:14:41;20.70;99.90
23079;DHT22;11707;50.830;4.364;2022-09-09T14:17:10;20.30;99.90
23079;DHT22;11707;50.830;4.364;2022-09-09T14:19:35;20.30;99.90
23079;DHT22;11707;50.830;4.364;2022-09-09T14:22:02;20.00;99.90
23079;DHT22;11707;50.830;4.364;2022-09-09T14:24:29;19.70;99.90
23079;DHT22;11707;50.830;4.364;2022-09-09T14:26:54;19.50;99.90
23079;DHT22;11707;50.830;4.364;2022-09-09T14:29:20;19.40;99.90
23079;DHT22;11707;50.830;4.364;2022-09-09T14:31:46;19.40;99.90
23079;DHT22;11707;50.830;4.364;2022-09-09T14:34:12;19.50;99.90
23079;DHT22;11707;50.830;4.364;2022-09-09T14:36:40;19.80;99.90
23079;DHT22;11707;50.830;4.364;2022-09-09T14:39:07;20.20;99.90
23079;DHT22;11707;50.830;4.364;2022-09-09T14:41:34;20.00;99.90
23079;DHT22;11707;50.830;4.364;2022-09-09T14:43:59;20.00;99.90
23079;DHT22;11707;50.830;4.364;2022-09-09T14:46:26;19.80;99.90
23079;DHT22;11707;50.830;4.364;2022-09-09T14:48:52;20.00;99.90
23079;DHT22;11707;50.830;4.364;2022-09-09T14:51:23;20.10;99.90
23079;DHT22;11707;50.830;4.364;2022-09-09T14:53:53;20.20;99.90
23079;DHT22;11707;50.830;4.364;2022-09-09T14:56:21;20.10;99.90
23079;DHT22;11707;50.830;4.364;2022-09-09T14:58:49;20.20;99.90
23079;DHT22;11707;50.830;4.364;2022-09-09T15:01:17;20.00;99.90
23079;DHT22;11707;50.830;4.364;2022-09-09T15:03:55;20.00;99.90
23079;DHT22;11707;50.830;4.364;2022-09-09T15:06:22;20.10;99.90
23079;DHT22;11707;50.830;4.364;2022-09-09T15:08:51;19.90;99.90
23079;DHT22;11707;50.830;4.364;2022-09-09T15:11:18;19.90;99.90
23079;DHT22;11707;50.830;4.364;2022-09-09T15:13:44;20.20;99.90
23079;DHT22;11707;50.830;4.364;2022-09-09T15:16:15;20.30;99.90
23079;DHT22;11707;50.830;4.364;2022-09-09T15:18:42;20.40;99.90
23079;DHT22;11707;50.830;4.364;2022-09-09T15:21:14;20.50;99.90
23079;DHT22;11707;50.830;4.364;2022-09-09T15:23:41;20.70;99.90
23079;DHT22;11707;50.830;4.364;2022-09-09T15:26:07;20.60;99.90
23079;DHT22;11707;50.830;4.364;2022-09-09T15:28:34;20.30;99.90
23079;DHT22;11707;50.830;4.364;2022-09-09T15:34:04;20.20;99.90
23079;DHT22;11707;50.830;4.364;2022-09-09T15:36:36;20.20;99.90
23079;DHT22;11707;50.830;4.364;2022-09-09T15:39:04;20.10;99.90
23079;DHT22;11707;50.830;4.364;2022-09-09T15:41:31;19.80;99.90
23079;DHT22;11707;50.830;4.364;2022-09-09T15:44:00;19.80;99.90
23079;DHT22;11707;50.830;4.364;2022-09-09T15:46:29;20.00;99.90
23079;DHT22;11707;50.830;4.364;2022-09-09T15:51:32;20.10;99.90
23079;DHT22;11707;50.830;4.364;2022-09-09T15:53:58;19.80;99.90
23079;DHT22;11707;50.830;4.364;2022-09-09T15:56:28;19.90;99.90
23079;DHT22;11707;50.830;4.364;2022-09-09T15:58:59;19.80;99.90
23079;DHT22;11707;50.830;4.364;2022-09-09T16:01:26;19.60;99.90
23079;DHT22;11707;50.830;4.364;2022-09-09T16:03:52;19.80;99.90
23079;DHT22;11707;50.830;4.364;2022-09-09T16:06:20;19.80;99.90
23079;DHT22;11707;50.830;4.364;2022-09-09T16:08:49;19.70;99.90
23079;DHT22;11707;50.830;4.364;2022-09-09T16:11:28;19.70;99.90
23079;DHT22;11707;50.830;4.364;2022-09-09T16:13:55;19.50;99.90
23079;DHT22;11707;50.830;4.364;2022-09-09T16:16:26;19.40;99.90
23079;DHT22;11707;50.830;4.364;2022-09-09T16:18:55;19.30;99.90
23079;DHT22;11707;50.830;4.364;2022-09-09T16:21:26;19.20;99.90
23079;DHT22;11707;50.830;4.364;2022-09-09T16:23:55;19.20;99.90
23079;DHT22;11707;50.830;4.364;2022-09-09T16:26:22;19.20;99.90
23079;DHT22;11707;50.830;4.364;2022-09-09T16:28:49;19.10;99.90
23079;DHT22;11707;50.830;4.364;2022-09-09T16:31:23;18.60;99.90
23079;DHT22;11707;50.830;4.364;2022-09-09T16:33:49;18.10;99.90
23079;DHT22;11707;50.830;4.364;2022-09-09T16:36:18;17.70;99.90
23079;DHT22;11707;50.830;4.364;2022-09-09T16:38:44;17.50;99.90
23079;DHT22;11707;50.830;4.364;2022-09-09T16:41:11;17.40;99.90
23079;DHT22;11707;50.830;4.364;2022-09-09T16:43:37;17.40;99.90
23079;DHT22;11707;50.830;4.364;2022-09-09T16:46:12;17.40;99.90
23079;DHT22;11707;50.830;4.364;2022-09-09T16:48:39;17.50;99.90
23079;DHT22;11707;50.830;4.364;2022-09-09T16:51:18;17.70;99.90
23079;DHT22;11707;50.830;4.364;2022-09-09T16:53:44;17.80;99.90
23079;DHT22;11707;50.830;4.364;2022-09-09T16:56:16;17.90;99.90
23079;DHT22;11707;50.830;4.364;2022-09-09T16:58:42;18.10;99.90
23079;DHT22;11707;50.830;4.364;2022-09-09T17:01:10;18.10;99.90
23079;DHT22;11707;50.830;4.364;2022-09-09T17:03:39;18.10;99.90
23079;DHT22;11707;50.830;4.364;2022-09-09T17:06:10;18.20;99.90
23079;DHT22;11707;50.830;4.364;2022-09-09T17:08:37;18.20;99.90
23079;DHT22;11707;50.830;4.364;2022-09-09T17:11:03;18.20;99.90
23079;DHT22;11707;50.830;4.364;2022-09-09T17:13:31;18.30;99.90
23079;DHT22;11707;50.830;4.364;2022-09-09T17:15:56;18.30;99.90
23079;DHT22;11707;50.830;4.364;2022-09-09T17:18:22;18.40;99.90
23079;DHT22;11707;50.830;4.364;2022-09-09T17:20:48;18.30;99.90
23079;DHT22;11707;50.830;4.364;2022-09-09T17:23:14;18.10;99.90
23079;DHT22;11707;50.830;4.364;2022-09-09T17:25:41;18.00;99.90
23079;DHT22;11707;50.830;4.364;2022-09-09T17:28:06;17.80;99.90
23079;DHT22;11707;50.830;4.364;2022-09-09T17:30:36;17.70;99.90
23079;DHT22;11707;50.830;4.364;2022-09-09T17:33:03;17.80;99.90
23079;DHT22;11707;50.830;4.364;2022-09-09T17:35:30;17.70;99.90
23079;DHT22;11707;50.830;4.364;2022-09-09T17:37:56;17.70;99.90
23079;DHT22;11707;50.830;4.364;2022-09-09T17:40:23;17.60;99.90
23079;DHT22;11707;50.830;4.364;2022-09-09T17:42:49;17.60;99.90
23079;DHT22;11707;50.830;4.364;2022-09-09T17:45:15;17.60;99.90
23079;DHT22;11707;50.830;4.364;2022-09-09T17:47:42;17.60;99.90
23079;DHT22;11707;50.830;4.364;2022-09-09T17:50:09;17.60;99.90
23079;DHT22;11707;50.830;4.364;2022-09-09T17:52:36;17.60;99.90
23079;DHT22;11707;50.830;4.364;2022-09-09T17:55:04;17.60;99.90
23079;DHT22;11707;50.830;4.364;2022-09-09T17:57:33;17.50;99.90
23079;DHT22;11707;50.830;4.364;2022-09-09T17:59:59;17.50;99.90
23079;DHT22;11707;50.830;4.364;2022-09-09T18:02:25;17.50;99.90
23079;DHT22;11707;50.830;4.364;2022-09-09T18:04:50;17.50;99.90
23079;DHT22;11707;50.830;4.364;2022-09-09T18:07:16;17.40;99.90
23079;DHT22;11707;50.830;4.364;2022-09-09T18:09:42;17.40;99.90